createdAt,value
2022-11-20T00:00:18.841Z,-3.52
2022-11-20T00:05:18.163Z,-3.38
2022-11-20T00:10:17.086Z,-3.79
2022-11-20T00:15:16.235Z,-3.96
2022-11-20T00:20:16.065Z,-3.68
2022-11-20T00:25:15.650Z,-3.81
2022-11-20T00:30:15.373Z,-3.77
2022-11-20T00:35:14.383Z,-3.96
2022-11-20T00:40:13.684Z,-4.02
2022-11-20T00:45:12.702Z,-3.91
2022-11-20T00:50:11.514Z,-3.91
2022-11-20T00:55:10.514Z,-3.62
2022-11-20T01:00:09.984Z,-4.18
2022-11-20T01:05:11.391Z,-4.55
2022-11-20T01:10:10.387Z,-4.43
2022-11-20T01:15:09.958Z,-4.47
2022-11-20T01:20:09.443Z,-4.42
2022-11-20T01:25:08.499Z,-4.26
2022-11-20T01:30:08.014Z,-4.19
2022-11-20T01:35:07.013Z,-3.61
2022-11-20T01:40:06.618Z,-3.87
2022-11-20T01:46:03.913Z,-4.20
2022-11-20T01:51:05.117Z,-4.20
2022-11-20T01:56:09.279Z,-4.32
2022-11-20T02:01:08.066Z,-4.12
2022-11-20T02:06:56.621Z,-4.42
2022-11-20T02:11:56.467Z,-4.68
2022-11-20T02:16:55.975Z,-4.53
2022-11-20T02:22:20.882Z,-4.45
2022-11-20T02:27:19.917Z,-4.54
2022-11-20T02:32:23.490Z,-4.01
2022-11-20T02:37:22.958Z,-4.65
2022-11-20T02:42:21.694Z,-4.43
2022-11-20T02:47:20.793Z,-4.52
2022-11-20T02:52:19.545Z,-4.60
2022-11-20T02:57:18.627Z,-4.74
2022-11-20T03:02:17.418Z,-4.81
2022-11-20T03:07:16.542Z,-5.04
2022-11-20T03:12:15.906Z,-4.54
2022-11-20T03:17:14.801Z,-4.27
2022-11-20T03:22:13.603Z,-4.07
2022-11-20T03:27:12.491Z,-4.89
2022-11-20T03:32:11.249Z,-4.48
2022-11-20T03:37:10.528Z,-4.21
2022-11-20T03:42:30.298Z,-4.82
2022-11-20T03:47:29.555Z,-4.82
2022-11-20T03:52:28.315Z,-4.49
2022-11-20T03:57:27.108Z,-4.81
2022-11-20T04:02:25.890Z,-4.77
2022-11-20T04:07:24.762Z,-4.51
2022-11-20T04:12:23.572Z,-4.65
2022-11-20T04:17:22.432Z,-4.88
2022-11-20T04:22:21.237Z,-4.30
2022-11-20T04:27:20.168Z,-4.63
2022-11-20T04:32:18.885Z,-4.38
2022-11-20T04:37:17.716Z,-5.19
2022-11-20T04:42:31.550Z,-5.04
2022-11-20T04:47:30.485Z,-4.78
2022-11-20T04:52:29.237Z,-4.55
2022-11-20T04:57:28.007Z,-4.73
2022-11-20T05:02:26.774Z,-4.58
2022-11-20T05:07:25.629Z,-4.59
2022-11-20T05:12:24.651Z,-4.73
2022-11-20T05:17:23.528Z,-4.84
2022-11-20T05:22:22.274Z,-4.37
2022-11-20T05:27:21.524Z,-4.79
2022-11-20T05:32:20.260Z,-5.16
2022-11-20T05:37:19.081Z,-5.27
2022-11-20T05:42:33.078Z,-4.56
2022-11-20T05:47:35.290Z,-5.14
2022-11-20T05:52:34.051Z,-5.13
2022-11-20T05:57:33.148Z,-5.08
2022-11-20T06:02:36.016Z,-4.96
2022-11-20T06:07:34.908Z,-5.12
2022-11-20T06:12:34.278Z,-5.14
2022-11-20T06:17:33.273Z,-4.57
2022-11-20T06:22:33.205Z,-4.48
2022-11-20T06:27:32.026Z,-5.09
2022-11-20T06:32:30.788Z,-5.21
2022-11-20T06:37:29.582Z,-4.70
2022-11-20T06:42:28.304Z,-4.65
2022-11-20T06:47:27.116Z,-4.63
2022-11-20T06:52:25.860Z,-4.62
2022-11-20T06:57:24.767Z,-4.63
2022-11-20T07:02:23.521Z,-4.02
2022-11-20T07:07:22.398Z,-4.15
2022-11-20T07:12:21.700Z,-4.39
2022-11-20T07:17:20.544Z,-4.37
2022-11-20T07:22:19.452Z,-4.05
2022-11-20T07:27:18.329Z,-3.99
2022-11-20T07:32:17.227Z,-3.76
2022-11-20T07:37:16.928Z,-3.73
2022-11-20T07:42:15.725Z,-3.43
2022-11-20T07:47:14.706Z,-3.23
2022-11-20T07:52:13.670Z,-2.94
2022-11-20T07:57:12.514Z,-3.09
2022-11-20T08:02:12.239Z,-2.80
2022-11-20T08:07:11.070Z,-2.75
2022-11-20T08:12:38.014Z,-2.17
2022-11-20T08:17:36.907Z,-2.25
2022-11-20T08:22:35.888Z,-1.87
2022-11-20T08:27:34.893Z,-1.81
2022-11-20T08:32:36.782Z,-1.83
2022-11-20T08:37:35.680Z,-1.22
2022-11-20T08:42:34.411Z,-0.76
2022-11-20T08:47:33.355Z,-0.46
2022-11-20T08:52:33.469Z,-0.15
2022-11-20T08:57:38.585Z,-0.49
2022-11-20T09:02:37.574Z,-0.61
2022-11-20T09:07:36.366Z,-0.37
2022-11-20T09:12:35.221Z,-0.47
2022-11-20T09:17:34.037Z,-0.74
2022-11-20T09:22:33.806Z,-0.17
2022-11-20T09:27:32.619Z,-0.17
2022-11-20T09:32:31.535Z,5.59
2022-11-20T09:37:30.237Z,7.99
2022-11-20T09:42:34.881Z,8.36
2022-11-20T09:47:51.732Z,3.31
2022-11-20T09:52:56.879Z,1.47
2022-11-20T09:57:57.301Z,1.61
2022-11-20T10:03:06.842Z,1.39
2022-11-20T10:08:25.777Z,0.95
2022-11-20T10:13:59.938Z,1.36
2022-11-20T10:19:18.873Z,1.38
2022-11-20T10:24:45.326Z,1.65
2022-11-20T10:29:53.872Z,2.06
2022-11-20T10:35:02.645Z,1.99
2022-11-20T10:40:44.792Z,2.37
2022-11-20T10:45:56.248Z,2.08
2022-11-20T10:51:19.613Z,2.61
2022-11-20T10:56:30.977Z,2.79
2022-11-20T11:01:30.028Z,2.29
2022-11-20T11:06:48.066Z,3.04
2022-11-20T11:11:46.907Z,2.97
2022-11-20T11:16:54.297Z,2.52
2022-11-20T11:21:57.530Z,2.48
2022-11-20T11:27:05.531Z,2.94
2022-11-20T11:32:06.501Z,2.41
2022-11-20T11:37:11.431Z,2.89
2022-11-20T11:42:17.095Z,2.51
2022-11-20T11:47:26.698Z,2.65
2022-11-20T11:52:26.822Z,1.79
2022-11-20T11:57:55.694Z,2.13
2022-11-20T12:02:58.638Z,2.37
2022-11-20T12:08:12.854Z,2.10
2022-11-20T12:13:12.045Z,2.22
2022-11-20T12:18:22.250Z,1.75
2022-11-20T12:23:53.584Z,2.00
2022-11-20T12:29:28.535Z,1.82
2022-11-20T12:34:36.350Z,2.19
2022-11-20T12:39:43.568Z,1.82
2022-11-20T12:45:16.304Z,1.76
2022-11-20T12:50:30.634Z,1.80
2022-11-20T12:55:43.882Z,2.13
2022-11-20T13:00:56.722Z,2.22
2022-11-20T13:06:18.464Z,2.37
2022-11-20T13:11:20.087Z,2.27
2022-11-20T13:16:28.470Z,2.53
2022-11-20T13:21:47.295Z,2.39
2022-11-20T13:26:46.917Z,2.57
2022-11-20T13:31:48.866Z,2.84
2022-11-20T13:36:52.267Z,3.09
2022-11-20T13:42:00.586Z,3.22
2022-11-20T13:46:59.480Z,3.39
2022-11-20T13:52:07.034Z,3.40
2022-11-20T13:57:24.711Z,3.42
2022-11-20T14:02:26.493Z,3.40
2022-11-20T14:07:33.020Z,3.28
2022-11-20T14:12:34.048Z,2.63
2022-11-20T14:17:35.508Z,2.52
2022-11-20T14:22:34.445Z,2.24
2022-11-20T14:27:42.131Z,1.98
2022-11-20T14:32:43.113Z,2.00
2022-11-20T14:37:42.390Z,2.09
2022-11-20T14:42:44.869Z,1.65
2022-11-20T14:47:44.636Z,1.68
2022-11-20T14:52:52.153Z,1.66
2022-11-20T14:57:57.736Z,1.62
2022-11-20T15:02:57.028Z,1.69
2022-11-20T15:08:09.214Z,1.96
2022-11-20T15:13:27.454Z,2.03
2022-11-20T15:18:39.345Z,1.69
2022-11-20T15:23:38.230Z,1.77
2022-11-20T15:28:42.316Z,1.79
2022-11-20T15:33:41.213Z,1.68
2022-11-20T15:38:39.969Z,1.46
2022-11-20T15:43:39.652Z,1.35
2022-11-20T15:48:48.269Z,1.18
2022-11-20T15:53:47.543Z,1.10
2022-11-20T15:58:46.411Z,0.59
2022-11-20T16:03:45.829Z,0.80
2022-11-20T16:08:44.772Z,0.81
2022-11-20T16:14:02.080Z,0.74
2022-11-20T16:19:01.326Z,0.74
2022-11-20T16:24:02.063Z,0.89
2022-11-20T16:29:03.538Z,0.96
2022-11-20T16:34:11.959Z,0.68
2022-11-20T16:39:17.790Z,0.80
2022-11-20T16:44:19.383Z,0.42
2022-11-20T16:49:18.503Z,0.13
2022-11-20T16:54:21.177Z,0.27
2022-11-20T16:59:20.555Z,0.27
2022-11-20T17:04:19.554Z,0.03
2022-11-20T17:09:18.434Z,0.04
2022-11-20T17:14:17.261Z,-0.23
2022-11-20T17:19:16.086Z,-0.37
2022-11-20T17:24:16.241Z,-0.57
2022-11-20T17:29:17.547Z,-0.64
2022-11-20T17:34:16.948Z,-0.40
2022-11-20T17:39:17.189Z,-1.23
2022-11-20T17:44:15.999Z,-0.89
2022-11-20T17:49:16.961Z,-1.02
2022-11-20T17:54:17.750Z,-0.95
2022-11-20T17:59:18.629Z,-1.24
2022-11-20T18:04:17.627Z,-1.35
2022-11-20T18:09:16.918Z,-1.49
2022-11-20T18:14:32.871Z,-1.15
2022-11-20T18:19:42.567Z,-1.71
2022-11-20T18:24:50.338Z,-1.77
2022-11-20T18:29:51.935Z,-1.88
2022-11-20T18:34:51.348Z,-1.87
2022-11-20T18:39:50.520Z,-1.93
2022-11-20T18:44:53.677Z,-1.92
2022-11-20T18:49:54.574Z,-2.08
2022-11-20T19:00:21.814Z,-1.95
2022-11-20T19:05:21.063Z,-1.88
2022-11-20T19:10:20.475Z,-1.88
2022-11-20T19:15:19.423Z,-1.56
2022-11-20T19:20:19.036Z,-1.73
2022-11-20T19:25:17.757Z,-1.91
2022-11-20T19:30:17.376Z,-1.80
2022-11-20T19:35:16.201Z,-1.48
2022-11-20T19:40:14.902Z,-1.47
2022-11-20T19:45:13.857Z,-1.42
2022-11-20T19:50:13.090Z,-1.44
2022-11-20T19:55:11.949Z,-1.44
2022-11-20T20:06:38.929Z,-1.67
2022-11-20T20:11:38.676Z,-1.80
2022-11-20T20:16:37.596Z,-1.81
2022-11-20T20:21:36.501Z,-1.70
2022-11-20T20:26:35.174Z,-1.67
2022-11-20T20:36:31.410Z,-0.97
2022-11-20T20:41:31.038Z,-1.11
2022-11-20T20:46:29.986Z,-0.78
2022-11-20T20:51:28.781Z,-0.96
2022-11-20T20:56:28.066Z,-1.00
2022-11-20T21:01:28.716Z,-1.02
2022-11-20T21:06:27.835Z,-0.84
2022-11-20T21:11:26.576Z,-0.84
2022-11-20T21:16:25.399Z,-1.02
2022-11-20T21:21:42.807Z,-0.82
2022-11-20T21:26:41.572Z,-0.68
2022-11-20T21:31:40.270Z,-0.76
2022-11-20T21:36:39.157Z,-0.72
2022-11-20T21:41:38.784Z,-0.78
2022-11-20T21:46:39.947Z,-0.57
2022-11-20T21:51:38.952Z,-0.11
2022-11-20T21:56:37.774Z,-0.21
2022-11-20T22:01:36.615Z,-0.47
2022-11-20T22:06:35.456Z,-0.53
2022-11-20T22:11:34.145Z,-0.44
2022-11-20T22:16:34.486Z,-0.35
2022-11-20T22:21:34.328Z,-0.17
2022-11-20T22:26:39.870Z,-0.13
2022-11-20T22:31:39.192Z,-0.03
2022-11-20T22:36:39.477Z,0.31
2022-11-20T22:41:38.357Z,0.32
2022-11-20T22:46:38.442Z,0.18
2022-11-20T22:51:39.603Z,0.04
2022-11-20T22:56:38.617Z,0.18
2022-11-20T23:01:37.935Z,0.49
2022-11-20T23:06:37.107Z,0.37
2022-11-20T23:11:36.417Z,0.07
2022-11-20T23:16:35.617Z,0.20
2022-11-20T23:21:37.241Z,0.46
2022-11-20T23:26:38.523Z,0.54
2022-11-20T23:31:37.299Z,0.43
2022-11-20T23:36:36.784Z,0.43
2022-11-20T23:41:35.547Z,0.51
2022-11-20T23:46:34.293Z,0.47
2022-11-20T23:51:33.014Z,0.40
2022-11-20T23:56:31.756Z,0.51
